Time;durP1;ratioP1;P1;durP2;ratioP2;P2;SDS_P1;SDS_P2;PMS_P1;PMS_P2;Temp;Humidity;BMP_temperature;BMP_pressure;BME280_temperature;BME280_humidity;BME280_pressure;Samples;Min_cycle;Max_cycle;Signal;HPM_P1;HPM_P2
2022/04/13 00:00:04;;;;;;;;;2.00;2.00;;;;;15.92;62.02;100680.78;5066135;28;45352;-82
2022/04/13 00:02:30;;;;;;;;;3.25;3.25;;;;;15.77;62.20;100653.22;5064857;28;47742;-82
2022/04/13 00:04:55;;;;;;;;;2.50;2.00;;;;;15.97;62.22;100694.97;5066039;28;45200;-86
2022/04/13 00:07:20;;;;;;;;;2.00;2.00;;;;;15.81;62.51;100669.16;5067859;28;45196;-82
2022/04/13 00:09:46;;;;;;;;;2.25;1.75;;;;;15.79;62.78;100672.66;5069121;28;45404;-83
2022/04/13 00:12:11;;;;;;;;;4.00;3.00;;;;;15.79;62.70;100673.53;5068029;28;45444;-81
2022/04/13 00:14:37;;;;;;;;;3.00;2.75;;;;;15.73;62.78;100669.06;5063574;28;45079;-81
2022/04/13 00:17:02;;;;;;;;;2.50;2.00;;;;;15.59;62.94;100649.41;5069934;28;45163;-85
2022/04/13 00:19:28;;;;;;;;;3.00;2.25;;;;;15.55;62.71;100639.63;5068153;28;45092;-84
2022/04/13 00:21:53;;;;;;;;;3.00;3.00;;;;;15.98;62.90;100711.75;5071083;28;45201;-82
2022/04/13 00:24:19;;;;;;;;;2.50;2.50;;;;;16.19;62.89;100751.78;5069955;28;45100;-83
2022/04/13 00:26:44;;;;;;;;;4.50;3.50;;;;;15.58;62.78;100645.00;5070763;28;45336;-84
2022/04/13 00:29:10;;;;;;;;;3.50;2.75;;;;;15.72;62.88;100672.59;5070881;28;45254;-82
2022/04/13 00:31:35;;;;;;;;;3.00;3.00;;;;;16.08;63.23;100728.66;5070615;28;45656;-85
2022/04/13 00:34:00;;;;;;;;;3.00;3.00;;;;;16.00;62.98;100717.97;5063280;28;45088;-83
2022/04/13 00:36:26;;;;;;;;;2.75;2.75;;;;;15.83;63.21;100688.59;5070538;27;45463;-83
2022/04/13 00:38:51;;;;;;;;;2.00;2.00;;;;;15.40;63.14;100616.50;5070326;28;45145;-82
2022/04/13 00:41:17;;;;;;;;;1.75;1.75;;;;;15.91;62.86;100696.63;5070749;28;45464;-84
2022/04/13 00:43:43;;;;;;;;;3.00;2.50;;;;;15.68;63.10;100656.63;5070740;28;45611;-87
2022/04/13 00:46:09;;;;;;;;;3.75;3.75;;;;;15.64;63.48;100652.16;5068361;28;45226;-81
2022/04/13 00:48:36;;;;;;;;;2.50;2.50;;;;;15.60;63.39;100658.25;5068877;28;45335;-86
2022/04/13 00:51:02;;;;;;;;;4.25;3.25;;;;;16.06;63.18;100739.25;5070306;28;45421;-82
2022/04/13 00:53:30;;;;;;;;;4.00;4.00;;;;;16.04;63.20;100737.44;5070054;28;45350;-81
2022/04/13 00:55:57;;;;;;;;;3.25;3.00;;;;;15.83;63.34;100715.09;5069135;28;45241;-83
2022/04/13 00:58:27;;;;;;;;;3.25;3.00;;;;;16.03;63.75;100738.31;5069341;28;45689;-82
2022/04/13 01:00:53;;;;;;;;;2.75;2.75;;;;;15.71;63.50;100685.78;5069988;28;45392;-81
2022/04/13 01:03:21;;;;;;;;;3.75;3.75;;;;;15.89;64.01;100728.44;5069635;28;45589;-81
2022/04/13 01:05:48;;;;;;;;;3.50;3.50;;;;;15.73;63.54;100692.91;5068347;28;45427;-82
2022/04/13 01:08:15;;;;;;;;;3.00;3.00;;;;;15.71;64.37;100688.44;5068570;28;45067;-81
2022/04/13 01:10:42;;;;;;;;;3.50;3.00;;;;;15.97;64.39;100731.19;5069522;28;45166;-88
2022/04/13 01:13:08;;;;;;;;;3.25;3.25;;;;;15.59;64.40;100685.63;5070145;28;45814;-83
2022/04/13 01:15:34;;;;;;;;;4.75;3.25;;;;;15.19;63.82;100603.88;5070281;28;45234;-84
2022/04/13 01:17:59;;;;;;;;;3.50;3.00;;;;;15.96;64.21;100735.59;5070369;28;45202;-80
2022/04/13 01:20:25;;;;;;;;;2.00;2.00;;;;;15.57;63.77;100671.47;5068507;28;45889;-82
2022/04/13 01:22:51;;;;;;;;;4.00;3.00;;;;;15.62;63.94;100685.66;5069308;28;45214;-82
2022/04/13 01:25:16;;;;;;;;;3.50;3.50;;;;;15.51;64.26;100668.72;5070139;28;44993;-82
2022/04/13 01:27:41;;;;;;;;;2.75;2.75;;;;;15.51;64.28;100666.06;5067780;28;45139;-83
2022/04/13 01:30:09;;;;;;;;;3.25;3.25;;;;;15.73;65.03;100708.81;5069549;28;45419;-81
2022/04/13 01:32:35;;;;;;;;;3.00;2.00;;;;;15.70;64.89;100713.16;5067313;28;45776;-82
2022/04/13 01:35:00;;;;;;;;;3.50;3.50;;;;;15.89;65.06;100748.75;5069052;28;45213;-83
2022/04/13 01:37:26;;;;;;;;;2.00;2.00;;;;;15.44;64.48;100663.34;5069295;28;45075;-81
2022/04/13 01:39:51;;;;;;;;;1.00;1.00;;;;;15.70;65.29;100710.50;5069053;28;45185;-81
2022/04/13 01:42:16;;;;;;;;;4.25;4.00;;;;;15.43;65.08;100668.63;5064490;28;45231;-81
2022/04/13 01:44:42;;;;;;;;;4.50;4.25;;;;;15.37;65.21;100660.56;5059203;28;45824;-81
2022/04/13 01:47:08;;;;;;;;;3.50;2.50;;;;;15.59;65.19;100699.75;5069080;28;45140;-82
2022/04/13 01:49:35;;;;;;;;;3.00;2.00;;;;;15.52;65.94;100686.38;5067605;28;46565;-83
2022/04/13 01:52:01;;;;;;;;;2.75;2.75;;;;;15.51;65.45;100697.84;5066500;28;45350;-84
2022/04/13 01:54:26;;;;;;;;;4.00;4.00;;;;;15.51;65.51;100701.38;5068217;28;45339;-82
2022/04/13 01:56:52;;;;;;;;;2.25;2.00;;;;;15.80;65.30;100757.47;5069565;28;45044;-82
2022/04/13 01:59:17;;;;;;;;;3.00;3.00;;;;;15.41;65.90;100681.81;5069176;28;45067;-82
2022/04/13 02:01:43;;;;;;;;;3.00;3.00;;;;;15.71;66.20;100741.44;5069299;28;44933;-81
2022/04/13 02:04:20;;;;;;;;;2.00;2.00;;;;;15.79;66.01;100761.00;5067587;28;45508;-82
2022/04/13 02:06:46;;;;;;;;;3.75;3.75;;;;;15.91;66.15;100782.38;5070366;28;44890;-81
2022/04/13 02:09:12;;;;;;;;;2.00;2.00;;;;;15.68;66.38;100749.38;5068774;28;45630;-82
2022/04/13 02:11:37;;;;;;;;;2.75;2.00;;;;;15.78;66.64;100764.50;5068884;28;45213;-81
2022/04/13 02:14:03;;;;;;;;;3.00;2.75;;;;;15.35;66.27;100684.41;5067931;28;45544;-83
2022/04/13 02:16:28;;;;;;;;;3.25;3.25;;;;;15.49;65.86;100709.31;5068700;28;45702;-84
2022/04/13 02:18:53;;;;;;;;;4.75;4.00;;;;;15.53;65.92;100720.88;5068062;28;46074;-81
2022/04/13 02:21:19;;;;;;;;;5.75;5.50;;;;;15.35;65.58;100688.81;5067732;28;45288;-83
2022/04/13 02:23:46;;;;;;;;;4.50;4.50;;;;;15.64;65.99;100758.13;5069801;28;45174;-84
2022/04/13 02:26:11;;;;;;;;;5.00;4.50;;;;;15.53;66.02;100746.47;5069249;28;45224;-85
2022/04/13 02:28:37;;;;;;;;;4.75;4.50;;;;;15.85;66.58;100797.28;5069426;28;45523;-81
2022/04/13 02:31:02;;;;;;;;;5.50;5.00;;;;;15.50;66.97;100736.69;5069792;28;45359;-82
2022/04/13 02:33:31;;;;;;;;;6.50;5.50;;;;;15.76;67.26;100766.22;5067900;28;45134;-84
2022/04/13 02:35:57;;;;;;;;;4.25;4.00;;;;;15.48;67.61;100728.75;5068308;28;45132;-84
2022/04/13 02:38:23;;;;;;;;;4.00;4.00;;;;;15.74;67.78;100776.81;5068503;28;45682;-83
2022/04/13 02:40:48;;;;;;;;;5.25;4.50;;;;;15.73;68.14;100774.16;5068167;28;45151;-84
2022/04/13 02:43:13;;;;;;;;;4.25;4.00;;;;;15.55;68.20;100750.00;5069240;28;45338;-84
2022/04/13 02:45:39;;;;;;;;;5.00;4.00;;;;;15.57;68.39;100754.47;5070036;28;45005;-83
2022/04/13 02:48:04;;;;;;;;;4.75;4.00;;;;;15.55;68.35;100750.91;5068016;28;47681;-82
2022/04/13 02:50:30;;;;;;;;;4.00;4.00;;;;;15.62;68.21;100760.72;5068480;28;45276;-82
2022/04/13 02:52:56;;;;;;;;;3.50;3.50;;;;;15.26;68.38;100712.50;5069041;28;45126;-83
2022/04/13 02:55:22;;;;;;;;;5.00;5.00;;;;;15.58;68.50;100752.72;5067803;28;45533;-85
2022/04/13 02:57:47;;;;;;;;;5.00;5.00;;;;;15.49;68.52;100745.53;5066848;28;46539;-83
2022/04/13 03:00:13;;;;;;;;;5.50;5.00;;;;;15.66;69.06;100778.50;5068538;28;45139;-83
2022/04/13 03:02:39;;;;;;;;;3.50;3.50;;;;;15.12;68.40;100701.69;5067881;28;45087;-84
2022/04/13 03:05:05;;;;;;;;;6.25;5.25;;;;;15.43;68.67;100761.34;5069637;28;45087;-82
2022/04/13 03:07:32;;;;;;;;;6.25;5.00;;;;;15.46;68.80;100774.59;5068867;28;45831;-86
2022/04/13 03:10:00;;;;;;;;;5.00;4.00;;;;;15.48;68.91;100784.38;5068580;28;45455;-83
2022/04/13 03:12:26;;;;;;;;;5.00;5.00;;;;;15.15;69.04;100729.13;5068606;28;45123;-82
2022/04/13 03:14:51;;;;;;;;;6.75;6.00;;;;;15.60;68.91;100807.50;5067674;28;45127;-86
2022/04/13 03:17:17;;;;;;;;;6.75;5.75;;;;;15.29;69.56;100757.56;5063943;28;47482;-82
2022/04/13 03:19:42;;;;;;;;;7.25;6.00;;;;;15.61;69.42;100813.69;5064727;28;45194;-85
2022/04/13 03:22:08;;;;;;;;;5.00;5.00;;;;;15.49;69.64;100795.84;5057604;28;45078;-84
2022/04/13 03:24:36;;;;;;;;;5.50;5.00;;;;;15.48;69.57;100791.44;5063642;28;45139;-83
2022/04/13 03:27:01;;;;;;;;;9.00;7.00;;;;;15.60;70.23;100822.50;5069568;28;45286;-82
2022/04/13 03:29:27;;;;;;;;;5.25;5.25;;;;;15.55;69.98;100818.88;5069295;28;45388;-82
2022/04/13 03:31:52;;;;;;;;;6.00;6.00;;;;;14.96;70.09;100713.81;5068614;28;45103;-84
2022/04/13 03:34:20;;;;;;;;;6.00;6.00;;;;;15.18;70.39;100760.06;5067996;28;45189;-81
2022/04/13 03:36:47;;;;;;;;;6.75;6.75;;;;;15.54;70.63;100846.25;5068278;28;45379;-89
2022/04/13 03:39:13;;;;;;;;;6.00;5.50;;;;;15.02;70.63;100742.13;5066262;28;45986;-82
2022/04/13 03:41:38;;;;;;;;;5.00;5.00;;;;;15.36;71.18;100799.16;5066076;28;45123;-83
2022/04/13 03:44:04;;;;;;;;;7.00;7.00;;;;;15.12;70.79;100759.94;5068952;28;45351;-83
2022/04/13 03:46:30;;;;;;;;;7.00;6.75;;;;;15.22;71.11;100783.97;5071177;28;45132;-83
2022/04/13 03:48:55;;;;;;;;;6.00;6.00;;;;;15.15;71.19;100778.53;5070174;28;45143;-85
2022/04/13 03:51:21;;;;;;;;;7.25;6.25;;;;;14.96;71.02;100745.56;5071754;28;45408;-86
2022/04/13 03:53:46;;;;;;;;;7.00;6.75;;;;;15.32;71.62;100810.56;5071370;28;45498;-83
2022/04/13 03:56:11;;;;;;;;;7.00;6.00;;;;;15.03;71.51;100759.81;5070048;28;47582;-84
2022/04/13 03:58:40;;;;;;;;;6.25;5.50;;;;;15.16;71.46;100788.25;5071780;28;45243;-83
2022/04/13 04:01:06;;;;;;;;;7.75;7.00;;;;;15.09;71.57;100781.97;5071816;28;45163;-85
2022/04/13 04:03:31;;;;;;;;;8.00;7.25;;;;;14.89;71.42;100757.81;5070767;28;45322;-83
2022/04/13 04:05:57;;;;;;;;;8.25;7.50;;;;;14.96;71.66;100767.63;5073042;28;45866;-89
2022/04/13 04:08:23;;;;;;;;;8.00;7.00;;;;;14.96;72.41;100766.75;5072415;28;45217;-88
2022/04/13 04:10:49;;;;;;;;;6.75;6.00;;;;;14.77;72.72;100748.75;5074646;28;45396;-84
2022/04/13 04:13:14;;;;;;;;;6.00;6.00;;;;;14.68;72.75;100733.63;5071230;28;45423;-83
2022/04/13 04:15:39;;;;;;;;;7.00;6.25;;;;;15.13;72.54;100801.44;5070015;28;45189;-85
2022/04/13 04:18:06;;;;;;;;;6.25;6.00;;;;;15.11;72.27;100811.09;5071145;28;45206;-86
2022/04/13 04:20:31;;;;;;;;;7.50;7.25;;;;;14.66;72.52;100743.28;5070915;28;45243;-84
2022/04/13 04:22:56;;;;;;;;;7.00;7.00;;;;;14.80;72.29;100757.66;5071098;28;45073;-83
2022/04/13 04:25:22;;;;;;;;;7.00;7.00;;;;;14.90;72.48;100786.06;5069064;28;45867;-83
2022/04/13 04:27:47;;;;;;;;;10.50;9.75;;;;;14.75;72.53;100766.38;5061218;28;45459;-83
2022/04/13 04:30:12;;;;;;;;;7.67;7.67;;;;;15.00;72.45;100810.03;5071745;28;45188;-87
2022/04/13 04:32:38;;;;;;;;;9.00;8.50;;;;;15.12;72.30;100853.50;5070753;28;45255;-82
2022/04/13 04:35:05;;;;;;;;;8.75;8.00;;;;;14.40;72.49;100727.81;5070394;28;45513;-88
2022/04/13 04:37:31;;;;;;;;;8.00;6.50;;;;;14.82;72.75;100811.47;5062470;28;46081;-82
2022/04/13 04:39:56;;;;;;;;;8.25;8.25;;;;;14.79;72.83;100799.97;5052084;28;45583;-84
2022/04/13 04:42:21;;;;;;;;;8.00;8.00;;;;;14.59;72.69;100752.88;5043917;28;45803;-84
2022/04/13 04:44:47;;;;;;;;;10.75;9.50;;;;;14.89;72.96;100823.97;5052420;28;46694;-84
2022/04/13 04:47:12;;;;;;;;;8.75;8.50;;;;;14.65;73.01;100774.13;5052692;28;45575;-83
2022/04/13 04:49:38;;;;;;;;;9.00;7.75;;;;;14.58;72.97;100750.19;5053721;28;45676;-89
2022/04/13 04:52:03;;;;;;;;;9.25;7.50;;;;;14.35;73.07;100724.19;5054537;28;45741;-84
2022/04/13 04:54:29;;;;;;;;;8.00;8.00;;;;;14.91;72.88;100830.16;5053929;28;45995;-84
2022/04/13 04:56:54;;;;;;;;;9.00;8.00;;;;;14.90;72.96;100830.16;5046711;28;45972;-84
2022/04/13 04:59:20;;;;;;;;;9.00;9.00;;;;;14.55;73.42;100772.19;5059594;28;45430;-84
2022/04/13 05:01:45;;;;;;;;;9.00;9.00;;;;;14.79;73.21;100807.91;5048502;28;45095;-86
2022/04/13 05:04:11;;;;;;;;;9.50;9.00;;;;;14.77;72.75;100818.44;5051322;28;47032;-86
2022/04/13 05:06:36;;;;;;;;;8.00;8.00;;;;;14.44;73.59;100753.44;5053993;28;45714;-86
2022/04/13 05:09:02;;;;;;;;;8.00;6.75;;;;;14.14;73.36;100710.56;5051194;28;45583;-84
2022/04/13 05:11:27;;;;;;;;;8.00;8.00;;;;;14.12;73.29;100706.97;5066969;28;45654;-85
2022/04/13 05:13:53;;;;;;;;;10.75;9.50;;;;;14.33;73.19;100764.66;5051502;28;47572;-85
2022/04/13 05:16:24;;;;;;;;;9.75;8.50;;;;;13.72;73.34;100637.50;5052817;28;46437;-91
2022/04/13 05:18:49;;;;;;;;;8.25;8.25;;;;;14.57;73.53;100796.91;5046502;28;45624;-85
2022/04/13 05:21:15;;;;;;;;;8.50;8.25;;;;;14.26;73.37;100747.78;5050519;28;45606;-85
2022/04/13 05:23:44;;;;;;;;;9.75;9.00;;;;;14.55;73.72;100797.75;5049810;28;48016;-86
2022/04/13 05:26:10;;;;;;;;;10.25;10.00;;;;;14.85;73.63;100850.34;5052130;28;45508;-84
2022/04/13 05:29:10;;;;;;;;;8.00;7.25;;;;;15.12;73.74;100887.00;5056488;28;45477;-94
2022/04/13 05:31:39;;;;;;;;;8.25;8.25;;;;;14.71;73.70;100827.16;5043456;28;45581;-87
2022/04/13 05:34:04;;;;;;;;;9.00;9.00;;;;;15.00;74.11;100882.38;5051396;28;47802;-84
2022/04/13 05:36:30;;;;;;;;;11.25;10.75;;;;;14.38;74.06;100771.84;5057202;28;45083;-84
2022/04/13 05:38:55;;;;;;;;;8.75;8.50;;;;;14.11;73.99;100732.53;5057012;28;45790;-83
2022/04/13 05:41:20;;;;;;;;;12.33;9.67;;;;;14.66;73.66;100831.47;5052022;28;45711;-86
2022/04/13 05:43:46;;;;;;;;;11.50;10.50;;;;;14.92;73.83;100874.28;5055595;28;46545;-85
2022/04/13 05:46:11;;;;;;;;;10.25;10.00;;;;;15.11;74.29;100923.19;5054686;28;45740;-84
2022/04/13 05:48:36;;;;;;;;;9.00;8.25;;;;;14.79;74.15;100851.13;5057670;28;45631;-84
2022/04/13 05:51:02;;;;;;;;;10.25;10.25;;;;;14.74;73.82;100842.22;5057256;28;45578;-84
2022/04/13 05:53:27;;;;;;;;;11.00;10.50;;;;;14.94;73.80;100875.22;5050319;28;46903;-83
2022/04/13 05:55:56;;;;;;;;;12.75;10.25;;;;;14.78;74.02;100841.41;5051997;28;45565;-84
2022/04/13 05:58:24;;;;;;;;;14.50;14.00;;;;;14.77;74.09;100841.38;5050497;28;46592;-85
2022/04/13 06:00:49;;;;;;;;;9.25;9.25;;;;;14.08;74.02;100737.72;5070738;27;45716;-84
2022/04/13 06:03:15;;;;;;;;;12.00;11.00;;;;;14.52;73.78;100825.00;5046807;28;48144;-86
2022/04/13 06:05:40;;;;;;;;;11.00;10.00;;;;;14.72;74.13;100865.09;5040096;28;45353;-85
2022/04/13 06:08:06;;;;;;;;;10.50;10.50;;;;;15.16;73.76;100942.69;5040639;28;45494;-84
2022/04/13 06:10:32;;;;;;;;;10.75;10.75;;;;;15.16;73.86;100941.81;5048224;28;45243;-85
2022/04/13 06:12:57;;;;;;;;;11.00;10.00;;;;;15.17;74.50;100946.22;5052762;28;45362;-85
2022/04/13 06:15:22;;;;;;;;;12.50;12.25;;;;;14.32;73.96;100799.91;5058126;28;45346;-90
2022/04/13 06:17:48;;;;;;;;;12.00;11.00;;;;;14.15;74.32;100778.41;5062479;28;45367;-88
2022/04/13 06:20:14;;;;;;;;;11.50;11.50;;;;;13.77;74.26;100703.63;5056382;28;45680;-88
2022/04/13 06:22:42;;;;;;;;;11.00;10.75;;;;;14.96;74.28;100929.06;5053973;28;46431;-84
2022/04/13 06:25:09;;;;;;;;;12.25;12.00;;;;;15.16;74.74;100955.03;5053657;28;45478;-87
2022/04/13 06:27:35;;;;;;;;;12.50;12.50;;;;;14.82;74.92;100897.91;5067515;28;45053;-90
2022/04/13 06:30:00;;;;;;;;;11.25;10.75;;;;;14.69;74.37;100891.50;5068230;28;45802;-87
2022/04/13 06:32:36;;;;;;;;;12.00;12.00;;;;;14.71;75.30;100892.41;5069254;28;45199;-88
2022/04/13 06:35:04;;;;;;;;;14.75;13.50;;;;;15.11;76.47;100967.28;5067947;28;45677;-88
2022/04/13 06:37:30;;;;;;;;;13.50;13.50;;;;;14.56;76.66;100889.44;5062008;28;45449;-85
2022/04/13 06:39:55;;;;;;;;;14.00;13.00;;;;;14.20;77.36;100845.50;5062914;28;45633;-88
2022/04/13 06:42:22;;;;;;;;;12.75;11.00;;;;;14.85;77.50;100965.03;5051096;27;47974;-86
2022/04/13 06:44:52;;;;;;;;;15.00;14.00;;;;;14.07;77.34;100844.31;5050566;28;45935;-84
2022/04/13 06:47:37;;;;;;;;;17.75;15.75;;;;;14.88;77.62;100994.22;5056696;28;45338;-93
2022/04/13 06:53:24;;;;;;;;;18.00;16.50;;;;;14.33;77.88;100905.69;5081376;22;45975;-86
2022/04/13 06:55:53;;;;;;;;;15.00;14.50;;;;;14.90;77.74;101013.66;5056619;28;45487;-87
2022/04/13 06:58:19;;;;;;;;;16.00;15.25;;;;;13.63;77.43;100796.66;5065862;28;45192;-89
2022/04/13 07:00:45;;;;;;;;;17.00;15.50;;;;;14.24;77.41;100899.31;5067316;28;44944;-88
2022/04/13 07:03:54;;;;;;;;;17.50;16.50;;;;;13.50;77.33;100767.31;5070962;28;46951;-93
2022/04/13 07:06:20;;;;;;;;;14.00;13.00;;;;;14.56;77.35;100943.25;5067311;28;45354;-89
2022/04/13 07:08:45;;;;;;;;;15.25;14.50;;;;;14.23;77.08;100898.41;5068024;28;45363;-88
2022/04/13 07:11:10;;;;;;;;;16.00;14.00;;;;;14.51;77.18;100946.66;5070174;28;44939;-90
2022/04/13 07:13:36;;;;;;;;;17.75;15.75;;;;;14.23;77.33;100908.97;5066700;28;47364;-90
2022/04/13 07:16:05;;;;;;;;;12.25;12.25;;;;;14.25;77.04;100909.94;5067662;28;45198;-91
2022/04/13 07:18:51;;;;;;;;;14.25;14.00;;;;;13.81;83.01;100827.00;5068299;28;45161;-87
2022/04/13 07:21:16;;;;;;;;;12.00;12.00;;;;;14.59;83.67;100958.31;5067438;28;45721;-88
2022/04/13 07:23:42;;;;;;;;;14.50;13.75;;;;;15.15;82.53;101056.53;5066989;28;46954;-93
2022/04/13 07:26:13;;;;;;;;;17.00;16.50;;;;;14.62;78.62;100964.53;5067266;28;45188;-91
2022/04/13 07:28:38;;;;;;;;;15.25;14.75;;;;;13.90;77.21;100833.38;5068911;28;45500;-88
2022/04/13 07:31:20;;;;;;;;;12.75;12.25;;;;;15.23;77.05;101060.22;5067499;28;45345;-90
2022/04/13 07:33:45;;;;;;;;;16.75;15.75;;;;;14.44;76.59;100922.69;5068735;28;45961;-91
2022/04/13 07:36:14;;;;;;;;;15.25;14.50;;;;;14.57;76.87;100928.25;5069876;28;45270;-93
2022/04/13 07:38:39;;;;;;;;;15.25;15.25;;;;;14.82;76.81;100970.25;5035017;28;45275;-86
2022/04/13 07:41:20;;;;;;;;;17.00;16.00;;;;;15.41;76.87;101059.69;5063922;28;45308;-90
2022/04/13 07:43:49;;;;;;;;;13.25;13.00;;;;;15.19;76.37;101008.06;5058636;28;46966;-92
2022/04/13 07:46:21;;;;;;;;;17.00;15.00;;;;;15.51;76.18;101068.72;5065353;28;45567;-92
2022/04/13 07:48:50;;;;;;;;;12.75;12.25;;;;;14.79;75.78;100927.88;5082238;28;45095;-87
2022/04/13 07:51:15;;;;;;;;;14.00;13.00;;;;;14.17;75.96;100811.94;5066977;28;45226;-85
2022/04/13 07:53:41;;;;;;;;;14.00;13.25;;;;;15.61;75.83;101068.91;5067601;28;45308;-85
2022/04/13 07:56:07;;;;;;;;;12.50;12.00;;;;;15.36;75.27;101029.56;5068445;28;45275;-85
2022/04/13 07:58:33;;;;;;;;;14.75;14.00;;;;;14.74;75.46;100921.59;5064286;28;45147;-81
2022/04/13 08:00:58;;;;;;;;;16.50;15.50;;;;;15.50;75.31;101049.28;5066062;28;46002;-88
2022/04/13 08:03:24;;;;;;;;;15.00;13.50;;;;;15.55;75.43;101063.50;5061478;28;47363;-86
2022/04/13 08:05:49;;;;;;;;;14.50;14.50;;;;;14.77;75.64;100926.91;5067624;28;45211;-87
2022/04/13 08:08:14;;;;;;;;;16.00;15.00;;;;;14.82;75.23;100940.25;5064578;28;45120;-84
2022/04/13 08:10:40;;;;;;;;;15.25;14.75;;;;;15.25;75.14;101013.47;5056556;28;45107;-83
2022/04/13 08:13:05;;;;;;;;;13.67;13.33;;;;;15.22;75.68;101016.97;5042111;28;45379;-86
2022/04/13 08:15:30;;;;;;;;;13.75;12.75;;;;;15.61;76.01;101062.72;5040794;28;46862;-89
2022/04/13 08:17:56;;;;;;;;;12.00;11.75;;;;;14.91;75.42;100935.16;5036105;28;45431;-87
2022/04/13 08:20:21;;;;;;;;;15.25;13.00;;;;;14.96;75.26;100958.19;5030646;28;45324;-86
2022/04/13 08:22:47;;;;;;;;;14.00;13.50;;;;;14.98;75.38;100937.06;5036213;28;47193;-86
2022/04/13 08:25:13;;;;;;;;;19.00;16.25;;;;;15.62;75.19;101040.69;5059258;28;45430;-90
2022/04/13 08:27:38;;;;;;;;;15.25;14.50;;;;;14.98;75.32;100950.31;5058820;28;45220;-88
2022/04/13 08:30:04;;;;;;;;;15.50;15.50;;;;;15.17;75.34;100970.06;5040208;28;45660;-85
2022/04/13 08:32:30;;;;;;;;;14.75;14.75;;;;;14.64;74.90;100882.56;5041721;28;45854;-87
2022/04/13 08:34:56;;;;;;;;;16.75;15.75;;;;;14.77;75.45;100910.16;5046723;28;45605;-89
2022/04/13 08:37:29;;;;;;;;;14.00;14.00;;;;;15.71;75.06;101080.63;5053245;28;45701;-88
2022/04/13 08:39:55;;;;;;;;;17.50;17.00;;;;;15.48;75.38;101043.97;5055164;28;45349;-85
2022/04/13 08:42:39;;;;;;;;;15.50;14.50;;;;;15.69;75.09;101069.09;5055775;28;48062;-91
2022/04/13 08:45:11;;;;;;;;;16.75;16.75;;;;;15.21;75.35;100982.50;5056727;28;45997;-87
2022/04/13 08:47:43;;;;;;;;;19.75;17.75;;;;;15.57;75.11;101056.50;5064319;28;45601;-91
2022/04/13 08:50:10;;;;;;;;;19.75;18.75;;;;;15.75;75.08;101087.78;5042765;28;45443;-83
2022/04/13 08:52:38;;;;;;;;;17.75;17.75;;;;;15.95;75.46;101136.75;5059600;28;45581;-87
2022/04/13 08:55:09;;;;;;;;;19.25;18.25;;;;;15.51;75.20;101074.00;5032748;28;45835;-86
2022/04/13 08:57:38;;;;;;;;;19.75;19.75;;;;;15.63;75.20;101106.06;5029829;28;45458;-86
2022/04/13 09:00:13;;;;;;;;;16.50;13.00;;;;;15.64;75.14;101105.22;5031555;28;45500;-86
2022/04/13 09:02:45;;;;;;;;;18.50;16.75;;;;;15.82;75.51;101152.41;5030889;28;48002;-88
2022/04/13 09:05:14;;;;;;;;;15.75;15.50;;;;;15.56;75.31;101112.09;5031060;28;45796;-86
2022/04/13 09:07:41;;;;;;;;;16.00;16.00;;;;;15.82;75.19;101158.59;5029944;28;45465;-85
2022/04/13 09:10:10;;;;;;;;;20.25;19.00;;;;;15.87;75.74;101166.66;5042564;28;45513;-87
2022/04/13 09:12:36;;;;;;;;;16.00;15.25;;;;;15.51;75.32;101093.44;5058636;28;47448;-86
2022/04/13 09:15:04;;;;;;;;;18.25;17.25;;;;;15.95;75.64;101167.66;5057376;28;45469;-84
2022/04/13 09:17:30;;;;;;;;;17.00;15.25;;;;;15.73;75.32;101138.09;5050139;28;45726;-86
2022/04/13 09:19:59;;;;;;;;;18.75;17.75;;;;;15.87;75.99;101164.00;5050765;28;45301;-87
2022/04/13 09:22:26;;;;;;;;;18.50;18.00;;;;;15.63;75.04;101104.34;5060268;28;45929;-86
2022/04/13 09:24:52;;;;;;;;;22.00;20.50;;;;;15.80;75.82;101117.00;5059399;28;45801;-86
2022/04/13 09:27:20;;;;;;;;;21.50;20.25;;;;;16.11;75.22;101151.22;5050324;28;45236;-84
2022/04/13 09:29:47;;;;;;;;;22.25;22.25;;;;;15.95;75.65;101112.88;5039066;28;45401;-84
2022/04/13 09:32:13;;;;;;;;;19.00;17.75;;;;;16.17;74.88;101137.16;5068340;28;48034;-83
2022/04/13 09:34:39;;;;;;;;;18.50;17.25;;;;;16.33;74.32;101175.47;5053568;28;45474;-86
2022/04/13 09:37:06;;;;;;;;;16.25;15.25;;;;;16.09;74.19;101114.91;5053226;28;45335;-86
2022/04/13 09:39:32;;;;;;;;;21.00;19.50;;;;;15.99;74.21;101108.53;5053227;28;45338;-85
2022/04/13 09:42:02;;;;;;;;;19.00;18.00;;;;;16.21;74.48;101142.56;5050133;28;48037;-82
2022/04/13 09:44:29;;;;;;;;;18.00;17.00;;;;;16.29;74.49;101150.63;5052469;28;45965;-84
2022/04/13 09:47:07;;;;;;;;;15.75;15.75;;;;;16.28;74.60;101140.00;5053754;28;45655;-85
2022/04/13 09:49:33;;;;;;;;;17.00;16.50;;;;;16.46;74.10;101162.44;5053456;28;45679;-84
2022/04/13 09:52:00;;;;;;;;;18.00;17.50;;;;;16.31;74.43;101133.00;5053236;28;45542;-87
2022/04/13 09:54:26;;;;;;;;;15.00;15.00;;;;;16.70;74.32;101198.22;5051752;28;46173;-83
2022/04/13 09:56:52;;;;;;;;;18.00;16.50;;;;;16.57;74.20;101151.13;5051667;28;45464;-86
2022/04/13 09:59:28;;;;;;;;;16.25;15.50;;;;;16.67;73.98;101161.91;5052703;28;45698;-85
2022/04/13 10:01:54;;;;;;;;;16.00;15.50;;;;;16.35;73.97;101091.47;5051248;28;47330;-86
2022/04/13 10:04:27;;;;;;;;;17.00;15.00;;;;;16.91;73.55;101187.09;5052805;28;45762;-86
2022/04/13 10:06:53;;;;;;;;;13.50;12.50;;;;;16.81;73.74;101167.47;5053824;28;45508;-85
2022/04/13 10:09:19;;;;;;;;;12.00;11.00;;;;;16.60;73.54;101119.28;5053236;28;45439;-87
2022/04/13 10:11:58;;;;;;;;;10.75;10.75;;;;;16.87;73.58;101162.25;5051956;28;46138;-85
2022/04/13 10:14:24;;;;;;;;;8.75;8.25;;;;;16.77;72.85;101144.41;5052984;28;46214;-83
2022/04/13 10:16:52;;;;;;;;;12.00;10.75;;;;;17.06;73.00;101168.75;5051833;28;45367;-86
2022/04/13 10:19:21;;;;;;;;;11.00;11.00;;;;;17.10;72.54;101169.69;5052872;28;45440;-84
2022/04/13 10:21:49;;;;;;;;;9.00;9.00;;;;;16.71;72.96;101094.75;5052579;28;45830;-83
2022/04/13 10:24:21;;;;;;;;;11.00;10.25;;;;;17.14;72.17;101172.41;5051278;28;45998;-81
2022/04/13 10:27:10;;;;;;;;;10.00;10.00;;;;;16.68;72.43;101096.44;5051629;28;45548;-85
2022/04/13 10:29:37;;;;;;;;;14.00;13.00;;;;;16.86;72.42;101136.56;5050664;28;45474;-83
2022/04/13 10:32:14;;;;;;;;;13.50;13.25;;;;;17.02;72.13;101158.94;5052087;28;46504;-84
2022/04/13 10:34:46;;;;;;;;;12.00;12.00;;;;;17.01;72.82;101139.47;5049290;28;46023;-84
2022/04/13 10:37:13;;;;;;;;;13.00;12.50;;;;;17.14;72.57;101134.31;5050874;28;45734;-83
2022/04/13 10:39:41;;;;;;;;;10.00;9.25;;;;;16.74;71.78;101049.66;5051404;28;45635;-82
2022/04/13 10:42:08;;;;;;;;;10.25;10.00;;;;;17.28;71.73;101140.69;5052165;28;45873;-82
2022/04/13 10:44:35;;;;;;;;;12.25;10.25;;;;;17.08;70.87;101081.13;5052764;28;46045;-84
2022/04/13 10:47:12;;;;;;;;;14.25;13.50;;;;;17.78;71.34;101191.00;5054814;28;45822;-86
2022/04/13 10:49:54;;;;;;;;;14.00;14.00;;;;;17.79;71.94;101184.81;5053969;28;45449;-86
2022/04/13 10:52:26;;;;;;;;;10.00;10.00;;;;;17.41;70.50;101121.41;5051082;28;45750;-84
2022/04/13 10:55:01;;;;;;;;;10.75;10.75;;;;;17.36;70.46;101117.78;5048156;28;45429;-84
2022/04/13 10:57:34;;;;;;;;;8.50;8.00;;;;;17.27;70.70;101094.66;5050321;28;45838;-83
2022/04/13 11:00:03;;;;;;;;;11.50;10.50;;;;;17.49;71.23;101138.34;5049781;28;45727;-84
2022/04/13 11:02:38;;;;;;;;;12.00;11.00;;;;;17.67;71.17;101168.66;5050144;28;46901;-84
2022/04/13 11:05:04;;;;;;;;;14.50;14.50;;;;;17.54;70.37;101144.63;5049626;28;45992;-84
2022/04/13 11:07:30;;;;;;;;;11.50;11.50;;;;;17.42;71.34;101124.94;5059441;28;45471;-85
2022/04/13 11:09:57;;;;;;;;;14.00;13.00;;;;;17.11;69.97;101087.38;5062492;28;45066;-84
2022/04/13 11:12:27;;;;;;;;;10.75;10.25;;;;;17.28;70.62;101095.53;5067744;28;46109;-84
2022/04/13 11:14:54;;;;;;;;;14.50;13.00;;;;;17.42;70.30;101120.53;5063288;28;45271;-83
2022/04/13 11:17:19;;;;;;;;;12.00;12.00;;;;;17.86;70.67;101183.13;5043153;28;45594;-83
2022/04/13 11:19:50;;;;;;;;;7.00;6.67;;;;;17.70;69.37;101143.03;5039877;28;45393;-83